Oakfield, New York
Current Conditions -  °F | °C
As of 1:54 AM on Monday 24 Nov 2014 (Local Time) from KBUF Reporting Station
Light Rain Light Rain  
Wind Chill: 51°   Ceiling: 9500
Heat Index: 51°   Visibility: 10mi
Dew Point: 45°   Wind: 18mph
Humidity: 80%   Direction: 160°SSE
Pressure: 29.41"   Gusts: 26mph
Location:  43.07°N, 78.27°W
Report Text: KBUF 240654Z 16016G23KT 10SM -RA SCT075 OVC095 11/07 A2941 RMK AO2 PK WND 16027/0633 SLP960 P0001 T01060072
Loading
Personal Weather Stations






























Interactive Weather Map New forecast layout! Learn more

10-Day Weather Forecast

Advertisements
Track Severe Weather on mobile